sensor_id;sensor_type;location;lat;lon;timestamp;P1;durP1;ratioP1;P2;durP2;ratioP2
44764;SDS011;30484;52.382;5.260;2022-12-29T00:01:01;12.02;;;5.65;;
44764;SDS011;30484;52.382;5.260;2022-12-29T00:03:30;7.85;;;5.25;;
44764;SDS011;30484;52.382;5.260;2022-12-29T00:05:59;8.20;;;5.30;;
44764;SDS011;30484;52.382;5.260;2022-12-29T00:08:30;7.80;;;5.35;;
44764;SDS011;30484;52.382;5.260;2022-12-29T00:11:07;10.38;;;5.40;;
44764;SDS011;30484;52.382;5.260;2022-12-29T00:13:36;9.18;;;4.55;;
44764;SDS011;30484;52.382;5.260;2022-12-29T00:16:23;6.13;;;4.57;;
44764;SDS011;30484;52.382;5.260;2022-12-29T00:18:52;8.90;;;4.55;;
44764;SDS011;30484;52.382;5.260;2022-12-29T00:21:22;6.63;;;4.38;;
44764;SDS011;30484;52.382;5.260;2022-12-29T00:28:11;9.23;;;3.80;;
44764;SDS011;30484;52.382;5.260;2022-12-29T00:31:00;4.88;;;3.58;;
44764;SDS011;30484;52.382;5.260;2022-12-29T00:33:47;5.22;;;3.65;;
44764;SDS011;30484;52.382;5.260;2022-12-29T00:36:34;3.97;;;3.00;;
44764;SDS011;30484;52.382;5.260;2022-12-29T00:39:06;8.05;;;3.40;;
44764;SDS011;30484;52.382;5.260;2022-12-29T00:42:02;8.57;;;3.47;;
44764;SDS011;30484;52.382;5.260;2022-12-29T00:45:03;8.40;;;3.28;;
44764;SDS011;30484;52.382;5.260;2022-12-29T00:47:32;4.80;;;3.35;;
44764;SDS011;30484;52.382;5.260;2022-12-29T00:50:01;6.00;;;2.90;;
44764;SDS011;30484;52.382;5.260;2022-12-29T00:52:29;6.25;;;2.78;;
44764;SDS011;30484;52.382;5.260;2022-12-29T00:54:57;3.88;;;2.58;;
44764;SDS011;30484;52.382;5.260;2022-12-29T00:57:26;4.35;;;2.50;;
44764;SDS011;30484;52.382;5.260;2022-12-29T00:59:54;4.38;;;2.30;;
44764;SDS011;30484;52.382;5.260;2022-12-29T01:02:26;4.40;;;2.35;;
44764;SDS011;30484;52.382;5.260;2022-12-29T01:04:56;5.07;;;2.30;;
44764;SDS011;30484;52.382;5.260;2022-12-29T01:07:24;4.50;;;2.20;;
44764;SDS011;30484;52.382;5.260;2022-12-29T01:09:53;4.10;;;2.05;;
44764;SDS011;30484;52.382;5.260;2022-12-29T01:12:36;4.43;;;2.20;;
44764;SDS011;30484;52.382;5.260;2022-12-29T01:15:12;4.65;;;2.13;;
44764;SDS011;30484;52.382;5.260;2022-12-29T01:17:45;11.65;;;2.97;;
44764;SDS011;30484;52.382;5.260;2022-12-29T01:20:14;3.50;;;1.88;;
44764;SDS011;30484;52.382;5.260;2022-12-29T01:22:43;5.00;;;2.03;;
44764;SDS011;30484;52.382;5.260;2022-12-29T01:25:14;4.53;;;1.95;;
44764;SDS011;30484;52.382;5.260;2022-12-29T01:27:43;4.55;;;1.90;;
44764;SDS011;30484;52.382;5.260;2022-12-29T01:30:12;4.65;;;1.98;;
44764;SDS011;30484;52.382;5.260;2022-12-29T01:32:46;5.45;;;2.10;;
44764;SDS011;30484;52.382;5.260;2022-12-29T01:35:15;7.15;;;2.33;;
44764;SDS011;30484;52.382;5.260;2022-12-29T01:37:43;5.00;;;1.92;;
44764;SDS011;30484;52.382;5.260;2022-12-29T01:40:12;4.88;;;2.20;;
44764;SDS011;30484;52.382;5.260;2022-12-29T01:42:44;5.13;;;2.15;;
44764;SDS011;30484;52.382;5.260;2022-12-29T01:45:14;2.33;;;1.67;;
44764;SDS011;30484;52.382;5.260;2022-12-29T01:47:48;4.30;;;1.85;;
44764;SDS011;30484;52.382;5.260;2022-12-29T01:50:24;4.18;;;1.90;;
44764;SDS011;30484;52.382;5.260;2022-12-29T01:52:59;9.23;;;2.22;;
44764;SDS011;30484;52.382;5.260;2022-12-29T01:55:33;2.45;;;1.77;;
44764;SDS011;30484;52.382;5.260;2022-12-29T01:58:08;3.72;;;1.70;;
44764;SDS011;30484;52.382;5.260;2022-12-29T02:00:43;2.72;;;1.75;;
44764;SDS011;30484;52.382;5.260;2022-12-29T02:03:15;6.55;;;1.83;;
44764;SDS011;30484;52.382;5.260;2022-12-29T02:05:49;5.05;;;1.73;;
44764;SDS011;30484;52.382;5.260;2022-12-29T02:08:25;5.03;;;1.40;;
44764;SDS011;30484;52.382;5.260;2022-12-29T02:10:57;4.63;;;1.73;;
44764;SDS011;30484;52.382;5.260;2022-12-29T02:13:28;4.55;;;1.70;;
44764;SDS011;30484;52.382;5.260;2022-12-29T02:16:03;5.88;;;1.92;;
44764;SDS011;30484;52.382;5.260;2022-12-29T02:19:07;5.10;;;1.52;;
44764;SDS011;30484;52.382;5.260;2022-12-29T02:22:17;5.72;;;1.40;;
44764;SDS011;30484;52.382;5.260;2022-12-29T02:25:04;7.15;;;2.00;;
44764;SDS011;30484;52.382;5.260;2022-12-29T02:28:06;7.80;;;3.42;;
44764;SDS011;30484;52.382;5.260;2022-12-29T02:31:18;4.43;;;1.40;;
44764;SDS011;30484;52.382;5.260;2022-12-29T02:34:38;5.57;;;1.58;;
44764;SDS011;30484;52.382;5.260;2022-12-29T02:37:38;5.93;;;1.58;;
44764;SDS011;30484;52.382;5.260;2022-12-29T02:40:20;7.80;;;1.80;;
44764;SDS011;30484;52.382;5.260;2022-12-29T02:43:03;4.90;;;1.48;;
44764;SDS011;30484;52.382;5.260;2022-12-29T02:45:43;12.13;;;2.15;;
44764;SDS011;30484;52.382;5.260;2022-12-29T02:48:24;4.57;;;1.40;;
44764;SDS011;30484;52.382;5.260;2022-12-29T02:50:59;9.13;;;1.70;;
44764;SDS011;30484;52.382;5.260;2022-12-29T02:53:32;7.82;;;1.42;;
44764;SDS011;30484;52.382;5.260;2022-12-29T02:56:21;9.43;;;1.90;;
44764;SDS011;30484;52.382;5.260;2022-12-29T02:58:50;9.90;;;1.73;;
44764;SDS011;30484;52.382;5.260;2022-12-29T03:01:29;12.50;;;1.65;;
44764;SDS011;30484;52.382;5.260;2022-12-29T03:04:39;6.57;;;1.42;;
44764;SDS011;30484;52.382;5.260;2022-12-29T03:08:34;9.02;;;1.52;;
44764;SDS011;30484;52.382;5.260;2022-12-29T03:11:55;6.13;;;0.98;;
44764;SDS011;30484;52.382;5.260;2022-12-29T03:14:38;8.38;;;1.25;;
44764;SDS011;30484;52.382;5.260;2022-12-29T03:17:40;3.75;;;1.00;;
44764;SDS011;30484;52.382;5.260;2022-12-29T03:20:22;11.23;;;2.05;;
44764;SDS011;30484;52.382;5.260;2022-12-29T03:23:00;7.95;;;1.70;;
44764;SDS011;30484;52.382;5.260;2022-12-29T03:25:33;13.15;;;2.03;;
44764;SDS011;30484;52.382;5.260;2022-12-29T03:28:09;12.27;;;2.45;;
44764;SDS011;30484;52.382;5.260;2022-12-29T03:30:45;14.23;;;2.40;;
44764;SDS011;30484;52.382;5.260;2022-12-29T03:33:15;13.98;;;2.10;;
44764;SDS011;30484;52.382;5.260;2022-12-29T03:35:51;15.07;;;2.10;;
44764;SDS011;30484;52.382;5.260;2022-12-29T03:38:28;9.13;;;2.22;;
44764;SDS011;30484;52.382;5.260;2022-12-29T03:41:04;11.43;;;2.75;;
44764;SDS011;30484;52.382;5.260;2022-12-29T03:43:38;13.73;;;2.53;;
44764;SDS011;30484;52.382;5.260;2022-12-29T03:46:07;17.38;;;2.90;;
44764;SDS011;30484;52.382;5.260;2022-12-29T03:48:38;16.90;;;2.47;;
44764;SDS011;30484;52.382;5.260;2022-12-29T03:51:10;33.20;;;9.40;;
44764;SDS011;30484;52.382;5.260;2022-12-29T03:53:39;17.45;;;2.83;;
44764;SDS011;30484;52.382;5.260;2022-12-29T03:56:08;25.50;;;3.25;;
44764;SDS011;30484;52.382;5.260;2022-12-29T03:58:52;24.23;;;2.90;;
44764;SDS011;30484;52.382;5.260;2022-12-29T04:01:31;18.05;;;2.90;;
44764;SDS011;30484;52.382;5.260;2022-12-29T04:06:38;17.00;;;2.75;;
44764;SDS011;30484;52.382;5.260;2022-12-29T04:09:07;20.15;;;2.80;;
44764;SDS011;30484;52.382;5.260;2022-12-29T04:11:40;20.65;;;2.45;;
44764;SDS011;30484;52.382;5.260;2022-12-29T04:14:33;16.98;;;2.55;;
44764;SDS011;30484;52.382;5.260;2022-12-29T04:18:36;16.83;;;2.05;;
44764;SDS011;30484;52.382;5.260;2022-12-29T04:21:12;18.75;;;2.53;;
44764;SDS011;30484;52.382;5.260;2022-12-29T04:23:47;20.52;;;2.10;;
44764;SDS011;30484;52.382;5.260;2022-12-29T04:26:16;17.20;;;2.47;;
44764;SDS011;30484;52.382;5.260;2022-12-29T04:28:44;19.38;;;2.35;;
44764;SDS011;30484;52.382;5.260;2022-12-29T04:31:13;10.45;;;1.73;;
44764;SDS011;30484;52.382;5.260;2022-12-29T04:33:41;16.83;;;2.03;;
44764;SDS011;30484;52.382;5.260;2022-12-29T04:36:10;12.93;;;2.22;;
44764;SDS011;30484;52.382;5.260;2022-12-29T04:38:39;11.60;;;2.08;;
44764;SDS011;30484;52.382;5.260;2022-12-29T04:41:11;15.35;;;4.28;;
44764;SDS011;30484;52.382;5.260;2022-12-29T04:43:40;15.63;;;2.25;;
44764;SDS011;30484;52.382;5.260;2022-12-29T04:46:09;22.45;;;5.95;;
44764;SDS011;30484;52.382;5.260;2022-12-29T04:48:39;10.48;;;1.75;;
44764;SDS011;30484;52.382;5.260;2022-12-29T04:51:11;8.93;;;1.60;;
44764;SDS011;30484;52.382;5.260;2022-12-29T04:56:59;13.88;;;1.95;;
44764;SDS011;30484;52.382;5.260;2022-12-29T04:59:42;17.90;;;2.25;;
44764;SDS011;30484;52.382;5.260;2022-12-29T05:02:19;21.67;;;3.47;;
44764;SDS011;30484;52.382;5.260;2022-12-29T05:05:02;22.40;;;2.92;;
44764;SDS011;30484;52.382;5.260;2022-12-29T05:07:33;19.38;;;2.70;;
44764;SDS011;30484;52.382;5.260;2022-12-29T05:10:02;21.10;;;3.03;;
44764;SDS011;30484;52.382;5.260;2022-12-29T05:12:35;26.40;;;3.08;;
44764;SDS011;30484;52.382;5.260;2022-12-29T05:15:06;27.55;;;2.63;;
44764;SDS011;30484;52.382;5.260;2022-12-29T05:17:38;21.33;;;2.55;;
44764;SDS011;30484;52.382;5.260;2022-12-29T05:20:07;24.48;;;3.25;;
44764;SDS011;30484;52.382;5.260;2022-12-29T05:22:37;25.27;;;2.95;;
44764;SDS011;30484;52.382;5.260;2022-12-29T05:25:06;20.60;;;2.83;;
44764;SDS011;30484;52.382;5.260;2022-12-29T05:27:38;17.23;;;2.67;;
44764;SDS011;30484;52.382;5.260;2022-12-29T05:30:07;17.98;;;1.95;;
44764;SDS011;30484;52.382;5.260;2022-12-29T05:32:37;13.88;;;2.20;;
44764;SDS011;30484;52.382;5.260;2022-12-29T05:35:07;16.25;;;2.45;;
44764;SDS011;30484;52.382;5.260;2022-12-29T05:37:36;12.85;;;2.22;;
44764;SDS011;30484;52.382;5.260;2022-12-29T05:40:08;22.23;;;2.95;;
44764;SDS011;30484;52.382;5.260;2022-12-29T05:42:39;19.85;;;2.70;;
44764;SDS011;30484;52.382;5.260;2022-12-29T05:45:09;15.38;;;2.08;;
44764;SDS011;30484;52.382;5.260;2022-12-29T05:47:38;19.10;;;2.67;;
44764;SDS011;30484;52.382;5.260;2022-12-29T05:50:07;22.55;;;2.53;;
44764;SDS011;30484;52.382;5.260;2022-12-29T05:52:37;16.67;;;3.10;;
44764;SDS011;30484;52.382;5.260;2022-12-29T05:55:07;30.80;;;3.42;;
44764;SDS011;30484;52.382;5.260;2022-12-29T05:57:38;21.70;;;2.65;;
44764;SDS011;30484;52.382;5.260;2022-12-29T06:00:08;14.02;;;2.65;;
44764;SDS011;30484;52.382;5.260;2022-12-29T06:02:39;24.30;;;2.70;;
44764;SDS011;30484;52.382;5.260;2022-12-29T06:05:11;19.05;;;3.17;;
44764;SDS011;30484;52.382;5.260;2022-12-29T06:07:40;24.60;;;4.05;;
44764;SDS011;30484;52.382;5.260;2022-12-29T06:10:11;20.27;;;2.85;;
44764;SDS011;30484;52.382;5.260;2022-12-29T06:12:42;22.05;;;3.05;;
44764;SDS011;30484;52.382;5.260;2022-12-29T06:15:12;27.48;;;3.75;;
44764;SDS011;30484;52.382;5.260;2022-12-29T06:17:42;23.25;;;3.45;;
44764;SDS011;30484;52.382;5.260;2022-12-29T06:20:12;25.27;;;3.60;;
44764;SDS011;30484;52.382;5.260;2022-12-29T06:22:40;25.20;;;2.75;;
44764;SDS011;30484;52.382;5.260;2022-12-29T06:25:10;32.78;;;4.13;;
44764;SDS011;30484;52.382;5.260;2022-12-29T06:27:39;19.48;;;3.30;;
44764;SDS011;30484;52.382;5.260;2022-12-29T06:30:10;23.88;;;3.50;;
44764;SDS011;30484;52.382;5.260;2022-12-29T06:32:42;17.95;;;3.13;;
44764;SDS011;30484;52.382;5.260;2022-12-29T06:35:14;23.33;;;3.40;;
44764;SDS011;30484;52.382;5.260;2022-12-29T06:37:43;21.73;;;4.05;;
44764;SDS011;30484;52.382;5.260;2022-12-29T06:40:14;23.50;;;3.58;;
44764;SDS011;30484;52.382;5.260;2022-12-29T06:42:48;19.42;;;2.90;;
44764;SDS011;30484;52.382;5.260;2022-12-29T06:45:17;22.90;;;2.70;;
44764;SDS011;30484;52.382;5.260;2022-12-29T06:47:45;20.67;;;4.20;;
44764;SDS011;30484;52.382;5.260;2022-12-29T06:50:15;27.33;;;3.85;;
44764;SDS011;30484;52.382;5.260;2022-12-29T06:52:45;22.42;;;3.10;;
44764;SDS011;30484;52.382;5.260;2022-12-29T06:55:15;24.83;;;2.85;;
44764;SDS011;30484;52.382;5.260;2022-12-29T07:02:58;27.77;;;4.05;;
44764;SDS011;30484;52.382;5.260;2022-12-29T07:05:28;21.73;;;3.17;;
44764;SDS011;30484;52.382;5.260;2022-12-29T07:07:59;23.58;;;3.13;;
44764;SDS011;30484;52.382;5.260;2022-12-29T07:10:30;27.83;;;3.00;;
44764;SDS011;30484;52.382;5.260;2022-12-29T07:13:01;32.22;;;3.78;;
44764;SDS011;30484;52.382;5.260;2022-12-29T07:15:30;24.15;;;4.32;;
44764;SDS011;30484;52.382;5.260;2022-12-29T07:18:00;26.52;;;3.22;;
44764;SDS011;30484;52.382;5.260;2022-12-29T07:20:30;30.00;;;3.53;;
44764;SDS011;30484;52.382;5.260;2022-12-29T07:23:00;23.83;;;3.72;;
44764;SDS011;30484;52.382;5.260;2022-12-29T07:25:30;32.38;;;3.70;;
44764;SDS011;30484;52.382;5.260;2022-12-29T07:28:01;23.65;;;3.20;;
44764;SDS011;30484;52.382;5.260;2022-12-29T07:30:30;27.75;;;3.92;;
44764;SDS011;30484;52.382;5.260;2022-12-29T07:33:00;33.60;;;4.25;;
44764;SDS011;30484;52.382;5.260;2022-12-29T07:35:29;35.50;;;3.70;;
44764;SDS011;30484;52.382;5.260;2022-12-29T07:38:01;33.00;;;3.97;;
44764;SDS011;30484;52.382;5.260;2022-12-29T07:40:30;22.88;;;3.38;;
44764;SDS011;30484;52.382;5.260;2022-12-29T07:43:04;30.08;;;5.13;;
44764;SDS011;30484;52.382;5.260;2022-12-29T07:45:34;26.33;;;4.25;;
44764;SDS011;30484;52.382;5.260;2022-12-29T07:48:03;26.60;;;3.80;;
44764;SDS011;30484;52.382;5.260;2022-12-29T07:50:34;24.75;;;3.30;;
44764;SDS011;30484;52.382;5.260;2022-12-29T07:53:04;22.77;;;3.15;;
44764;SDS011;30484;52.382;5.260;2022-12-29T07:55:33;24.77;;;3.67;;
44764;SDS011;30484;52.382;5.260;2022-12-29T07:58:03;21.55;;;3.78;;
44764;SDS011;30484;52.382;5.260;2022-12-29T08:00:33;24.45;;;3.05;;
44764;SDS011;30484;52.382;5.260;2022-12-29T08:03:04;24.50;;;3.03;;
44764;SDS011;30484;52.382;5.260;2022-12-29T08:05:33;25.70;;;2.97;;
44764;SDS011;30484;52.382;5.260;2022-12-29T08:08:02;15.95;;;2.58;;
44764;SDS011;30484;52.382;5.260;2022-12-29T08:10:32;19.45;;;3.00;;
44764;SDS011;30484;52.382;5.260;2022-12-29T08:13:00;15.25;;;2.95;;
44764;SDS011;30484;52.382;5.260;2022-12-29T08:15:31;19.67;;;3.20;;
44764;SDS011;30484;52.382;5.260;2022-12-29T08:18:03;23.27;;;2.85;;
44764;SDS011;30484;52.382;5.260;2022-12-29T08:20:32;22.30;;;2.97;;
44764;SDS011;30484;52.382;5.260;2022-12-29T08:23:11;23.63;;;3.30;;
44764;SDS011;30484;52.382;5.260;2022-12-29T08:25:40;25.83;;;2.95;;
44764;SDS011;30484;52.382;5.260;2022-12-29T08:28:09;25.85;;;3.42;;
44764;SDS011;30484;52.382;5.260;2022-12-29T08:30:40;21.48;;;2.90;;
44764;SDS011;30484;52.382;5.260;2022-12-29T08:33:11;32.78;;;3.50;;
44764;SDS011;30484;52.382;5.260;2022-12-29T08:35:40;23.88;;;3.20;;
44764;SDS011;30484;52.382;5.260;2022-12-29T08:38:13;30.10;;;3.88;;
44764;SDS011;30484;52.382;5.260;2022-12-29T08:40:43;23.45;;;3.40;;
44764;SDS011;30484;52.382;5.260;2022-12-29T08:43:11;28.67;;;3.60;;
44764;SDS011;30484;52.382;5.260;2022-12-29T08:45:45;28.73;;;3.30;;
44764;SDS011;30484;52.382;5.260;2022-12-29T08:48:16;32.67;;;3.72;;
44764;SDS011;30484;52.382;5.260;2022-12-29T08:50:46;29.30;;;3.95;;
44764;SDS011;30484;52.382;5.260;2022-12-29T08:53:16;36.67;;;3.83;;
44764;SDS011;30484;52.382;5.260;2022-12-29T08:55:46;27.35;;;3.40;;
44764;SDS011;30484;52.382;5.260;2022-12-29T08:58:29;35.75;;;3.13;;
44764;SDS011;30484;52.382;5.260;2022-12-29T09:01:01;33.67;;;3.30;;
44764;SDS011;30484;52.382;5.260;2022-12-29T09:03:30;35.60;;;4.22;;
44764;SDS011;30484;52.382;5.260;2022-12-29T09:06:19;33.40;;;3.97;;
44764;SDS011;30484;52.382;5.260;2022-12-29T09:08:48;28.90;;;3.72;;
44764;SDS011;30484;52.382;5.260;2022-12-29T09:11:18;31.85;;;3.67;;
44764;SDS011;30484;52.382;5.260;2022-12-29T09:13:50;26.02;;;3.33;;
44764;SDS011;30484;52.382;5.260;2022-12-29T09:16:25;35.83;;;3.60;;
44764;SDS011;30484;52.382;5.260;2022-12-29T09:18:54;30.95;;;3.22;;
44764;SDS011;30484;52.382;5.260;2022-12-29T09:21:23;26.83;;;3.25;;
44764;SDS011;30484;52.382;5.260;2022-12-29T09:23:52;29.08;;;3.53;;
44764;SDS011;30484;52.382;5.260;2022-12-29T09:26:20;34.00;;;3.53;;
44764;SDS011;30484;52.382;5.260;2022-12-29T09:28:49;37.70;;;4.50;;
44764;SDS011;30484;52.382;5.260;2022-12-29T09:31:18;28.13;;;3.15;;
44764;SDS011;30484;52.382;5.260;2022-12-29T09:33:48;32.05;;;3.50;;
44764;SDS011;30484;52.382;5.260;2022-12-29T09:36:16;28.23;;;3.28;;
44764;SDS011;30484;52.382;5.260;2022-12-29T09:38:45;23.38;;;3.17;;
44764;SDS011;30484;52.382;5.260;2022-12-29T09:41:15;28.30;;;3.92;;
44764;SDS011;30484;52.382;5.260;2022-12-29T09:43:56;24.27;;;3.45;;
44764;SDS011;30484;52.382;5.260;2022-12-29T09:46:34;28.63;;;3.25;;
44764;SDS011;30484;52.382;5.260;2022-12-29T09:49:13;14.00;;;2.60;;
44764;SDS011;30484;52.382;5.260;2022-12-29T09:51:53;19.55;;;3.15;;
44764;SDS011;30484;52.382;5.260;2022-12-29T09:54:30;19.90;;;3.03;;
44764;SDS011;30484;52.382;5.260;2022-12-29T09:57:18;18.42;;;3.40;;
44764;SDS011;30484;52.382;5.260;2022-12-29T09:59:54;20.65;;;3.95;;
44764;SDS011;30484;52.382;5.260;2022-12-29T10:02:32;27.90;;;3.85;;
44764;SDS011;30484;52.382;5.260;2022-12-29T10:05:26;30.83;;;3.80;;
44764;SDS011;30484;52.382;5.260;2022-12-29T10:08:17;25.02;;;3.45;;
44764;SDS011;30484;52.382;5.260;2022-12-29T10:11:04;29.27;;;4.22;;
44764;SDS011;30484;52.382;5.260;2022-12-29T10:13:50;20.90;;;3.75;;
44764;SDS011;30484;52.382;5.260;2022-12-29T10:16:47;22.13;;;4.30;;
44764;SDS011;30484;52.382;5.260;2022-12-29T10:19:31;29.65;;;3.83;;
44764;SDS011;30484;52.382;5.260;2022-12-29T10:22:20;26.08;;;4.38;;
44764;SDS011;30484;52.382;5.260;2022-12-29T10:25:00;19.00;;;4.15;;
44764;SDS011;30484;52.382;5.260;2022-12-29T10:27:40;25.92;;;4.03;;
44764;SDS011;30484;52.382;5.260;2022-12-29T10:30:11;37.75;;;4.38;;
44764;SDS011;30484;52.382;5.260;2022-12-29T10:32:43;28.55;;;4.47;;
44764;SDS011;30484;52.382;5.260;2022-12-29T10:37:52;32.90;;;4.53;;
44764;SDS011;30484;52.382;5.260;2022-12-29T10:40:29;31.52;;;4.22;;
44764;SDS011;30484;52.382;5.260;2022-12-29T10:43:12;41.13;;;5.25;;
44764;SDS011;30484;52.382;5.260;2022-12-29T10:45:50;39.15;;;4.78;;
44764;SDS011;30484;52.382;5.260;2022-12-29T10:48:26;26.95;;;4.20;;
44764;SDS011;30484;52.382;5.260;2022-12-29T10:50:59;41.70;;;4.88;;
44764;SDS011;30484;52.382;5.260;2022-12-29T10:53:35;35.08;;;4.78;;
44764;SDS011;30484;52.382;5.260;2022-12-29T10:56:13;34.33;;;4.90;;
44764;SDS011;30484;52.382;5.260;2022-12-29T10:58:53;38.40;;;6.22;;
44764;SDS011;30484;52.382;5.260;2022-12-29T11:01:27;38.55;;;5.40;;
44764;SDS011;30484;52.382;5.260;2022-12-29T11:04:08;38.75;;;4.90;;
44764;SDS011;30484;52.382;5.260;2022-12-29T11:06:53;40.25;;;5.40;;
44764;SDS011;30484;52.382;5.260;2022-12-29T11:09:25;34.38;;;5.07;;
44764;SDS011;30484;52.382;5.260;2022-12-29T11:12:21;39.15;;;4.88;;
44764;SDS011;30484;52.382;5.260;2022-12-29T11:17:44;48.67;;;5.22;;
44764;SDS011;30484;52.382;5.260;2022-12-29T11:20:33;46.15;;;5.93;;
44764;SDS011;30484;52.382;5.260;2022-12-29T11:23:05;40.25;;;5.45;;
44764;SDS011;30484;52.382;5.260;2022-12-29T11:29:16;48.45;;;5.60;;
44764;SDS011;30484;52.382;5.260;2022-12-29T11:31:52;46.55;;;6.50;;
44764;SDS011;30484;52.382;5.260;2022-12-29T11:34:25;40.72;;;6.47;;
44764;SDS011;30484;52.382;5.260;2022-12-29T11:37:00;38.22;;;4.90;;
44764;SDS011;30484;52.382;5.260;2022-12-29T11:39:34;41.70;;;5.53;;
44764;SDS011;30484;52.382;5.260;2022-12-29T11:42:14;40.00;;;5.15;;
44764;SDS011;30484;52.382;5.260;2022-12-29T11:44:47;38.72;;;5.50;;
44764;SDS011;30484;52.382;5.260;2022-12-29T11:47:23;43.28;;;5.30;;
44764;SDS011;30484;52.382;5.260;2022-12-29T11:49:59;54.47;;;6.38;;
44764;SDS011;30484;52.382;5.260;2022-12-29T11:52:33;37.85;;;5.40;;
44764;SDS011;30484;52.382;5.260;2022-12-29T11:55:32;36.38;;;5.20;;
44764;SDS011;30484;52.382;5.260;2022-12-29T11:58:03;53.47;;;6.25;;
44764;SDS011;30484;52.382;5.260;2022-12-29T12:00:34;44.42;;;5.93;;
44764;SDS011;30484;52.382;5.260;2022-12-29T12:03:10;37.30;;;4.95;;
44764;SDS011;30484;52.382;5.260;2022-12-29T12:05:46;42.70;;;4.70;;
44764;SDS011;30484;52.382;5.260;2022-12-29T12:08:21;47.83;;;6.43;;
44764;SDS011;30484;52.382;5.260;2022-12-29T12:11:06;34.00;;;4.72;;
44764;SDS011;30484;52.382;5.260;2022-12-29T12:13:42;31.55;;;4.47;;
44764;SDS011;30484;52.382;5.260;2022-12-29T12:16:24;35.85;;;4.82;;
44764;SDS011;30484;52.382;5.260;2022-12-29T12:19:03;34.50;;;4.78;;
44764;SDS011;30484;52.382;5.260;2022-12-29T12:21:43;36.60;;;4.93;;
44764;SDS011;30484;52.382;5.260;2022-12-29T12:24:32;29.75;;;5.13;;
44764;SDS011;30484;52.382;5.260;2022-12-29T12:27:11;27.58;;;4.22;;
44764;SDS011;30484;52.382;5.260;2022-12-29T12:29:50;21.75;;;3.70;;
44764;SDS011;30484;52.382;5.260;2022-12-29T12:32:39;35.63;;;3.50;;
44764;SDS011;30484;52.382;5.260;2022-12-29T12:35:15;24.70;;;3.47;;
44764;SDS011;30484;52.382;5.260;2022-12-29T12:37:57;32.70;;;3.80;;
44764;SDS011;30484;52.382;5.260;2022-12-29T12:40:53;25.10;;;3.88;;
44764;SDS011;30484;52.382;5.260;2022-12-29T12:43:43;21.33;;;2.80;;
44764;SDS011;30484;52.382;5.260;2022-12-29T12:53:13;28.48;;;3.47;;
44764;SDS011;30484;52.382;5.260;2022-12-29T12:56:21;26.08;;;3.00;;
44764;SDS011;30484;52.382;5.260;2022-12-29T12:59:33;22.65;;;3.88;;
44764;SDS011;30484;52.382;5.260;2022-12-29T13:02:21;20.33;;;2.45;;
44764;SDS011;30484;52.382;5.260;2022-12-29T13:05:16;20.80;;;2.90;;
44764;SDS011;30484;52.382;5.260;2022-12-29T13:11:24;16.85;;;2.72;;
44764;SDS011;30484;52.382;5.260;2022-12-29T13:14:10;15.73;;;3.50;;
44764;SDS011;30484;52.382;5.260;2022-12-29T13:16:53;18.85;;;2.90;;
44764;SDS011;30484;52.382;5.260;2022-12-29T13:19:34;15.68;;;2.90;;
44764;SDS011;30484;52.382;5.260;2022-12-29T13:22:12;18.42;;;2.40;;
44764;SDS011;30484;52.382;5.260;2022-12-29T13:24:52;25.48;;;3.33;;
44764;SDS011;30484;52.382;5.260;2022-12-29T13:27:35;26.98;;;3.80;;
44764;SDS011;30484;52.382;5.260;2022-12-29T13:30:14;28.95;;;4.38;;
44764;SDS011;30484;52.382;5.260;2022-12-29T13:32:49;22.70;;;3.58;;
44764;SDS011;30484;52.382;5.260;2022-12-29T13:35:41;26.65;;;3.17;;
44764;SDS011;30484;52.382;5.260;2022-12-29T13:38:30;20.00;;;3.10;;
44764;SDS011;30484;52.382;5.260;2022-12-29T13:41:05;23.20;;;3.05;;
44764;SDS011;30484;52.382;5.260;2022-12-29T13:43:37;31.33;;;3.55;;
44764;SDS011;30484;52.382;5.260;2022-12-29T13:46:12;29.30;;;3.67;;
44764;SDS011;30484;52.382;5.260;2022-12-29T13:48:50;32.80;;;3.28;;
44764;SDS011;30484;52.382;5.260;2022-12-29T13:51:23;23.85;;;3.50;;
44764;SDS011;30484;52.382;5.260;2022-12-29T13:54:03;24.15;;;2.72;;
44764;SDS011;30484;52.382;5.260;2022-12-29T13:56:49;16.67;;;2.50;;
44764;SDS011;30484;52.382;5.260;2022-12-29T13:59:30;23.35;;;2.75;;
44764;SDS011;30484;52.382;5.260;2022-12-29T14:02:31;23.45;;;3.38;;
44764;SDS011;30484;52.382;5.260;2022-12-29T14:07:57;25.48;;;3.35;;
44764;SDS011;30484;52.382;5.260;2022-12-29T14:13:04;24.42;;;2.83;;
44764;SDS011;30484;52.382;5.260;2022-12-29T14:15:38;24.73;;;3.15;;
44764;SDS011;30484;52.382;5.260;2022-12-29T14:18:13;17.20;;;3.13;;
44764;SDS011;30484;52.382;5.260;2022-12-29T14:20:50;28.02;;;5.10;;
44764;SDS011;30484;52.382;5.260;2022-12-29T14:23:35;27.92;;;3.58;;
44764;SDS011;30484;52.382;5.260;2022-12-29T14:26:18;27.92;;;3.45;;
44764;SDS011;30484;52.382;5.260;2022-12-29T14:29:15;23.80;;;3.28;;
44764;SDS011;30484;52.382;5.260;2022-12-29T14:32:37;26.65;;;3.83;;
44764;SDS011;30484;52.382;5.260;2022-12-29T14:35:40;25.35;;;3.67;;
44764;SDS011;30484;52.382;5.260;2022-12-29T14:38:16;22.58;;;3.65;;
44764;SDS011;30484;52.382;5.260;2022-12-29T14:44:10;35.08;;;4.13;;
44764;SDS011;30484;52.382;5.260;2022-12-29T14:46:47;29.67;;;3.90;;
44764;SDS011;30484;52.382;5.260;2022-12-29T14:49:25;30.88;;;3.70;;
44764;SDS011;30484;52.382;5.260;2022-12-29T14:52:06;26.50;;;4.15;;
44764;SDS011;30484;52.382;5.260;2022-12-29T14:57:34;17.77;;;3.20;;
44764;SDS011;30484;52.382;5.260;2022-12-29T15:00:12;21.75;;;3.00;;
44764;SDS011;30484;52.382;5.260;2022-12-29T15:02:50;18.13;;;3.90;;
44764;SDS011;30484;52.382;5.260;2022-12-29T15:05:32;19.17;;;3.10;;
44764;SDS011;30484;52.382;5.260;2022-12-29T15:08:11;17.38;;;3.05;;
44764;SDS011;30484;52.382;5.260;2022-12-29T15:10:45;16.20;;;3.28;;
44764;SDS011;30484;52.382;5.260;2022-12-29T15:13:23;21.55;;;2.70;;
44764;SDS011;30484;52.382;5.260;2022-12-29T15:16:00;17.80;;;2.55;;
44764;SDS011;30484;52.382;5.260;2022-12-29T15:18:31;16.95;;;3.30;;
44764;SDS011;30484;52.382;5.260;2022-12-29T15:21:04;11.57;;;2.50;;
44764;SDS011;30484;52.382;5.260;2022-12-29T15:23:48;17.13;;;4.68;;
44764;SDS011;30484;52.382;5.260;2022-12-29T15:26:17;16.55;;;3.63;;
44764;SDS011;30484;52.382;5.260;2022-12-29T15:32:20;18.92;;;2.97;;
44764;SDS011;30484;52.382;5.260;2022-12-29T15:34:51;14.60;;;2.45;;
44764;SDS011;30484;52.382;5.260;2022-12-29T15:37:32;14.93;;;3.00;;
44764;SDS011;30484;52.382;5.260;2022-12-29T15:40:04;19.95;;;3.13;;
44764;SDS011;30484;52.382;5.260;2022-12-29T15:43:07;21.92;;;2.83;;
44764;SDS011;30484;52.382;5.260;2022-12-29T15:45:54;19.63;;;3.28;;
44764;SDS011;30484;52.382;5.260;2022-12-29T15:48:24;21.48;;;3.25;;
44764;SDS011;30484;52.382;5.260;2022-12-29T15:50:53;19.20;;;3.33;;
44764;SDS011;30484;52.382;5.260;2022-12-29T15:53:23;17.77;;;3.08;;
44764;SDS011;30484;52.382;5.260;2022-12-29T15:55:55;19.92;;;3.97;;
44764;SDS011;30484;52.382;5.260;2022-12-29T15:58:29;23.17;;;3.63;;
44764;SDS011;30484;52.382;5.260;2022-12-29T16:01:15;17.13;;;3.05;;
44764;SDS011;30484;52.382;5.260;2022-12-29T16:03:49;25.25;;;3.40;;
44764;SDS011;30484;52.382;5.260;2022-12-29T16:06:27;21.45;;;4.07;;
44764;SDS011;30484;52.382;5.260;2022-12-29T16:09:01;33.17;;;9.05;;
44764;SDS011;30484;52.382;5.260;2022-12-29T16:11:32;23.52;;;4.00;;
44764;SDS011;30484;52.382;5.260;2022-12-29T16:14:06;25.13;;;4.18;;
44764;SDS011;30484;52.382;5.260;2022-12-29T16:16:44;30.35;;;3.60;;
44764;SDS011;30484;52.382;5.260;2022-12-29T16:19:17;24.42;;;3.85;;
44764;SDS011;30484;52.382;5.260;2022-12-29T16:21:55;25.88;;;5.32;;
44764;SDS011;30484;52.382;5.260;2022-12-29T16:24:26;18.25;;;2.83;;